Time;durP1;ratioP1;P1;durP2;ratioP2;P2;SDS_P1;SDS_P2;PMS_P1;PMS_P2;Temp;Humidity;BMP_temperature;BMP_pressure;BME280_temperature;BME280_humidity;BME280_pressure;Samples;Min_cycle;Max_cycle;Signal;HPM_P1;HPM_P2
2023/04/17 00:00:49;;;;;;;;;;;;;;;;;;5113014;28;1668;-42
2023/04/17 00:03:16;;;;;;;;;;;;;;;;;;5112448;28;2139;-45
2023/04/17 00:05:45;;;;;;;;;;;;;;;;;;5112827;28;1998;-46
2023/04/17 00:08:12;;;;;;;;;;;;;;;;;;5112846;28;2142;-41
2023/04/17 00:10:39;;;;;;;;;;;;;;;;;;5112743;28;1867;-42
2023/04/17 00:13:06;;;;;;;;;;;;;;;;;;5112635;28;1915;-42
2023/04/17 00:15:33;;;;;;;;;;;;;;;;;;5112803;28;1646;-41
2023/04/17 00:18:00;;;;;;;;;;;;;;;;;;5112811;28;1619;-42
2023/04/17 00:20:27;;;;;;;;;;;;;;;;;;5112449;28;2251;-43
2023/04/17 00:22:54;;;;;;;;;;;;;;;;;;5112399;28;1888;-43
2023/04/17 00:25:22;;;;;;;;;;;;;;;;;;5112473;28;1505;-41
2023/04/17 00:27:49;;;;;;;;;;;;;;;;;;5112512;28;2102;-43
2023/04/17 00:30:18;;;;;;;;;;;;;;;;;;5093969;28;2216;-42
2023/04/17 00:32:45;;;;;;;;;;;;;;;;;;5112360;28;1959;-42
2023/04/17 00:35:12;;;;;;;;;;;;;;;;;;5112736;28;2141;-41
2023/04/17 00:37:39;;;;;;;;;;;;;;;;;;5128104;27;1520;-41
2023/04/17 00:40:07;;;;;;;;;;;;;;;;;;5112316;28;1971;-42
2023/04/17 00:42:34;;;;;;;;;;;;;;;;;;5128024;27;2362;-43
2023/04/17 00:45:04;;;;;;;;;;;;;;;;;;5112292;28;2123;-42
2023/04/17 00:47:31;;;;;;;;;;;;;;;;;;5121936;27;1958;-42
2023/04/17 00:49:58;;;;;;;;;;;;;;;;;;5132796;27;2207;-43
2023/04/17 00:52:29;;;;;;;;;;;;;;;;;;5132276;27;1913;-42
2023/04/17 00:54:57;;;;;;;;;;;;;;;;;;5114082;27;1778;-43
2023/04/17 00:57:25;;;;;;;;;;;;;;;;;;5132496;27;2207;-52
2023/04/17 00:59:55;;;;;;;;;;;;;;;;;;5132733;27;2094;-44
2023/04/17 01:02:22;;;;;;;;;;;;;;;;;;5132243;27;1682;-47
2023/04/17 01:04:49;;;;;;;;;;;;;;;;;;5132258;27;2027;-43
2023/04/17 01:07:17;;;;;;;;;;;;;;;;;;5113797;27;1432;-45
2023/04/17 01:09:44;;;;;;;;;;;;;;;;;;5112998;27;1705;-53
2023/04/17 01:12:21;;;;;;;;;;;;;;;;;;5132034;27;1990;-42
2023/04/17 01:14:52;;;;;;;;;;;;;;;;;;5113640;28;2286;-42
2023/04/17 01:17:20;;;;;;;;;;;;;;;;;;5132289;27;1637;-42
2023/04/17 01:19:48;;;;;;;;;;;;;;;;;;5132011;27;1960;-46
2023/04/17 01:22:15;;;;;;;;;;;;;;;;;;5132207;27;2091;-42
2023/04/17 01:24:43;;;;;;;;;;;;;;;;;;5113538;28;2008;-41
2023/04/17 01:27:14;;;;;;;;;;;;;;;;;;5113629;28;1788;-43
2023/04/17 01:29:43;;;;;;;;;;;;;;;;;;5113923;28;1959;-44
2023/04/17 01:32:10;;;;;;;;;;;;;;;;;;5113561;28;1995;-42
2023/04/17 01:34:37;;;;;;;;;;;;;;;;;;5132433;28;1863;-43
2023/04/17 01:37:05;;;;;;;;;;;;;;;;;;5132046;28;1701;-42
2023/04/17 01:39:34;;;;;;;;;;;;;;;;;;5131877;28;2311;-41
2023/04/17 01:42:01;;;;;;;;;;;;;;;;;;5132239;28;1657;-43
2023/04/17 01:44:28;;;;;;;;;;;;;;;;;;5113507;28;2117;-42
2023/04/17 01:46:55;;;;;;;;;;;;;;;;;;5126688;28;2199;-43
2023/04/17 01:49:23;;;;;;;;;;;;;;;;;;5093196;28;1819;-47
2023/04/17 01:51:50;;;;;;;;;;;;;;;;;;5111097;28;1915;-43
2023/04/17 01:54:17;;;;;;;;;;;;;;;;;;5111454;28;1790;-45
2023/04/17 01:56:44;;;;;;;;;;;;;;;;;;5111137;28;1675;-43
2023/04/17 01:59:12;;;;;;;;;;;;;;;;;;5093092;28;2161;-42
2023/04/17 02:01:39;;;;;;;;;;;;;;;;;;5093279;28;1306;-43
2023/04/17 02:04:06;;;;;;;;;;;;;;;;;;5092694;28;2071;-46
2023/04/17 02:06:34;;;;;;;;;;;;;;;;;;5092894;28;1988;-44
2023/04/17 02:09:01;;;;;;;;;;;;;;;;;;5092723;28;1619;-43
2023/04/17 02:11:28;;;;;;;;;;;;;;;;;;5111107;28;1913;-44
2023/04/17 02:13:56;;;;;;;;;;;;;;;;;;5110944;28;1902;-51
2023/04/17 02:16:23;;;;;;;;;;;;;;;;;;5114490;28;2127;-43
2023/04/17 02:18:50;;;;;;;;;;;;;;;;;;5106687;28;1740;-43
2023/04/17 02:21:17;;;;;;;;;;;;;;;;;;5113384;28;2039;-43
2023/04/17 02:23:45;;;;;;;;;;;;;;;;;;5114869;28;1648;-47
2023/04/17 02:26:12;;;;;;;;;;;;;;;;;;5114904;28;1235;-45
2023/04/17 02:28:44;;;;;;;;;;;;;;;;;;5114856;28;2184;-44
2023/04/17 02:31:11;;;;;;;;;;;;;;;;;;5096521;28;1425;-45
2023/04/17 02:33:38;;;;;;;;;;;;;;;;;;5096558;28;2228;-44
2023/04/17 02:36:07;;;;;;;;;;;;;;;;;;5096081;28;1900;-44
2023/04/17 02:38:40;;;;;;;;;;;;;;;;;;5114616;28;1603;-42
2023/04/17 02:41:07;;;;;;;;;;;;;;;;;;5114240;28;2125;-49
2023/04/17 02:43:37;;;;;;;;;;;;;;;;;;5096092;28;2055;-43
2023/04/17 02:46:04;;;;;;;;;;;;;;;;;;5096205;28;1747;-46
2023/04/17 02:48:31;;;;;;;;;;;;;;;;;;5114319;28;2038;-43
2023/04/17 02:50:58;;;;;;;;;;;;;;;;;;5113086;28;2005;-46
2023/04/17 02:53:26;;;;;;;;;;;;;;;;;;5095628;28;2190;-45
2023/04/17 02:55:54;;;;;;;;;;;;;;;;;;5096047;28;2022;-43
2023/04/17 02:58:23;;;;;;;;;;;;;;;;;;5095917;28;1859;-43
2023/04/17 03:00:50;;;;;;;;;;;;;;;;;;5114296;28;2036;-43
2023/04/17 03:03:18;;;;;;;;;;;;;;;;;;5113963;28;1856;-43
2023/04/17 03:05:46;;;;;;;;;;;;;;;;;;5112803;28;1895;-43
2023/04/17 03:08:13;;;;;;;;;;;;;;;;;;5099028;27;1904;-43
2023/04/17 03:10:46;;;;;;;;;;;;;;;;;;5113831;27;1812;-43
2023/04/17 03:13:13;;;;;;;;;;;;;;;;;;5117943;27;1961;-43
2023/04/17 03:15:40;;;;;;;;;;;;;;;;;;5113985;28;1978;-44
2023/04/17 03:18:07;;;;;;;;;;;;;;;;;;5095389;28;1979;-44
2023/04/17 03:20:35;;;;;;;;;;;;;;;;;;5113615;28;1805;-43
2023/04/17 03:23:02;;;;;;;;;;;;;;;;;;5113842;28;2052;-48
2023/04/17 03:25:29;;;;;;;;;;;;;;;;;;5098135;27;2109;-43
2023/04/17 03:27:56;;;;;;;;;;;;;;;;;;5134266;27;2255;-44
2023/04/17 03:30:29;;;;;;;;;;;;;;;;;;5115882;27;2265;-43
2023/04/17 03:33:00;;;;;;;;;;;;;;;;;;5114649;27;1909;-44
2023/04/17 03:35:30;;;;;;;;;;;;;;;;;;5134076;27;1833;-44
2023/04/17 03:37:57;;;;;;;;;;;;;;;;;;5134197;27;1770;-43
2023/04/17 03:40:24;;;;;;;;;;;;;;;;;;5115499;27;1939;-44
2023/04/17 03:42:52;;;;;;;;;;;;;;;;;;5133974;27;1943;-48
2023/04/17 03:45:19;;;;;;;;;;;;;;;;;;5133940;27;1838;-44
2023/04/17 03:47:47;;;;;;;;;;;;;;;;;;5133595;27;1772;-43
2023/04/17 03:50:14;;;;;;;;;;;;;;;;;;5134019;27;2206;-44
2023/04/17 03:52:53;;;;;;;;;;;;;;;;;;5115013;27;1969;-43
2023/04/17 03:55:22;;;;;;;;;;;;;;;;;;5133572;27;1823;-43
2023/04/17 03:57:51;;;;;;;;;;;;;;;;;;5115137;27;1569;-43
2023/04/17 04:00:20;;;;;;;;;;;;;;;;;;5115286;27;1876;-43
2023/04/17 04:02:51;;;;;;;;;;;;;;;;;;5115142;27;1769;-44
2023/04/17 04:05:24;;;;;;;;;;;;;;;;;;5114744;27;2152;-43
2023/04/17 04:07:52;;;;;;;;;;;;;;;;;;5115055;27;2254;-46
2023/04/17 04:10:27;;;;;;;;;;;;;;;;;;5114608;27;1824;-43
2023/04/17 04:12:58;;;;;;;;;;;;;;;;;;5133281;27;1910;-43
2023/04/17 04:15:27;;;;;;;;;;;;;;;;;;5114434;27;2093;-44
2023/04/17 04:17:58;;;;;;;;;;;;;;;;;;5114771;27;1847;-43
2023/04/17 04:20:26;;;;;;;;;;;;;;;;;;5133174;27;2035;-43
2023/04/17 04:23:03;;;;;;;;;;;;;;;;;;5114830;27;1809;-46
2023/04/17 04:25:32;;;;;;;;;;;;;;;;;;5114540;27;1808;-49
2023/04/17 04:28:14;;;;;;;;;;;;;;;;;;5114623;27;1857;-43
2023/04/17 04:30:49;;;;;;;;;;;;;;;;;;5114581;27;2137;-45
2023/04/17 04:33:19;;;;;;;;;;;;;;;;;;5114517;27;2186;-44
2023/04/17 04:35:47;;;;;;;;;;;;;;;;;;5114179;27;1861;-46
2023/04/17 04:38:16;;;;;;;;;;;;;;;;;;5114468;27;1760;-42
2023/04/17 04:40:48;;;;;;;;;;;;;;;;;;5114232;27;1717;-42
2023/04/17 04:43:18;;;;;;;;;;;;;;;;;;5132544;27;1929;-43
2023/04/17 04:45:51;;;;;;;;;;;;;;;;;;5114230;27;1815;-41
2023/04/17 04:48:20;;;;;;;;;;;;;;;;;;5110661;28;1619;-42
2023/04/17 04:50:47;;;;;;;;;;;;;;;;;;5093793;28;1819;-41
2023/04/17 04:53:15;;;;;;;;;;;;;;;;;;5093507;28;2029;-42
2023/04/17 04:55:51;;;;;;;;;;;;;;;;;;5093781;28;1925;-49
2023/04/17 04:58:18;;;;;;;;;;;;;;;;;;5093628;28;1854;-49
2023/04/17 05:00:47;;;;;;;;;;;;;;;;;;5111867;28;2149;-42
2023/04/17 05:03:27;;;;;;;;;;;;;;;;;;5093653;28;1653;-50
2023/04/17 05:05:57;;;;;;;;;;;;;;;;;;5093388;28;2168;-43
2023/04/17 05:08:30;;;;;;;;;;;;;;;;;;5093518;28;2040;-43
2023/04/17 05:11:04;;;;;;;;;;;;;;;;;;5093350;28;1742;-41
2023/04/17 05:13:32;;;;;;;;;;;;;;;;;;5093169;28;1979;-57
2023/04/17 05:16:01;;;;;;;;;;;;;;;;;;5093057;28;2171;-55
2023/04/17 05:18:29;;;;;;;;;;;;;;;;;;5093100;28;1758;-59
2023/04/17 05:20:57;;;;;;;;;;;;;;;;;;5093124;28;1995;-42
2023/04/17 05:23:27;;;;;;;;;;;;;;;;;;5092976;28;1992;-42
2023/04/17 05:25:54;;;;;;;;;;;;;;;;;;5093347;28;1436;-42
2023/04/17 05:28:22;;;;;;;;;;;;;;;;;;5093489;28;2102;-42
2023/04/17 05:30:53;;;;;;;;;;;;;;;;;;5092926;28;1381;-41
2023/04/17 05:33:28;;;;;;;;;;;;;;;;;;5093260;28;2140;-41
2023/04/17 05:35:59;;;;;;;;;;;;;;;;;;5111291;28;1796;-41
2023/04/17 05:38:28;;;;;;;;;;;;;;;;;;5093074;28;2078;-42
2023/04/17 05:40:56;;;;;;;;;;;;;;;;;;5093223;28;1801;-43
2023/04/17 05:43:23;;;;;;;;;;;;;;;;;;5111468;28;1941;-42
2023/04/17 05:45:51;;;;;;;;;;;;;;;;;;5092936;28;1656;-43
2023/04/17 05:48:19;;;;;;;;;;;;;;;;;;5109160;28;2088;-42
2023/04/17 05:50:46;;;;;;;;;;;;;;;;;;5112934;28;1537;-52
2023/04/17 05:53:14;;;;;;;;;;;;;;;;;;5131664;28;2110;-42
2023/04/17 05:55:49;;;;;;;;;;;;;;;;;;5114745;27;2017;-42
2023/04/17 05:58:17;;;;;;;;;;;;;;;;;;5117442;27;1799;-43
2023/04/17 06:00:47;;;;;;;;;;;;;;;;;;5135696;27;1928;-46
2023/04/17 06:03:17;;;;;;;;;;;;;;;;;;5117342;27;2210;-42
2023/04/17 06:05:48;;;;;;;;;;;;;;;;;;5117038;27;1752;-45
2023/04/17 06:08:16;;;;;;;;;;;;;;;;;;5135721;27;1853;-43
2023/04/17 06:10:44;;;;;;;;;;;;;;;;;;5135585;27;2159;-42
2023/04/17 06:13:12;;;;;;;;;;;;;;;;;;5135422;27;1910;-43
2023/04/17 06:15:43;;;;;;;;;;;;;;;;;;5117142;27;2093;-42
2023/04/17 06:18:11;;;;;;;;;;;;;;;;;;5116951;27;1456;-50
2023/04/17 06:20:38;;;;;;;;;;;;;;;;;;5135272;27;2177;-43
2023/04/17 06:23:05;;;;;;;;;;;;;;;;;;5135283;27;1962;-42
2023/04/17 06:25:35;;;;;;;;;;;;;;;;;;5116812;27;2139;-43
2023/04/17 06:28:02;;;;;;;;;;;;;;;;;;5116622;27;1955;-46
2023/04/17 06:30:29;;;;;;;;;;;;;;;;;;5135425;27;2141;-42
2023/04/17 06:32:57;;;;;;;;;;;;;;;;;;5135194;27;2243;-42
2023/04/17 06:35:24;;;;;;;;;;;;;;;;;;5135195;27;1337;-42
2023/04/17 06:37:57;;;;;;;;;;;;;;;;;;5116681;27;2064;-47
2023/04/17 06:40:25;;;;;;;;;;;;;;;;;;5116548;27;2168;-43
2023/04/17 06:42:53;;;;;;;;;;;;;;;;;;5116536;27;1855;-43
2023/04/17 06:45:22;;;;;;;;;;;;;;;;;;5116774;27;2180;-42
2023/04/17 06:47:49;;;;;;;;;;;;;;;;;;5103856;28;1574;-42
2023/04/17 06:50:17;;;;;;;;;;;;;;;;;;5095908;28;2006;-42
2023/04/17 06:52:44;;;;;;;;;;;;;;;;;;5095956;28;2255;-42
2023/04/17 06:55:11;;;;;;;;;;;;;;;;;;5114035;28;1969;-42
2023/04/17 06:57:38;;;;;;;;;;;;;;;;;;5113996;28;1644;-45
2023/04/17 07:00:06;;;;;;;;;;;;;;;;;;5114239;28;1918;-42
2023/04/17 07:02:33;;;;;;;;;;;;;;;;;;5114255;28;1766;-43
2023/04/17 07:05:00;;;;;;;;;;;;;;;;;;5114475;28;1870;-42
2023/04/17 07:07:29;;;;;;;;;;;;;;;;;;5114041;28;2161;-43
2023/04/17 07:09:59;;;;;;;;;;;;;;;;;;5113835;28;1726;-42
2023/04/17 07:12:26;;;;;;;;;;;;;;;;;;5113953;28;1842;-41
2023/04/17 07:14:53;;;;;;;;;;;;;;;;;;5113860;28;2043;-42
2023/04/17 07:17:20;;;;;;;;;;;;;;;;;;5113835;28;1955;-42
2023/04/17 07:19:47;;;;;;;;;;;;;;;;;;5113819;28;1637;-45
2023/04/17 07:22:14;;;;;;;;;;;;;;;;;;5132914;27;1915;-42
2023/04/17 07:24:42;;;;;;;;;;;;;;;;;;5133974;27;2138;-42
2023/04/17 07:27:09;;;;;;;;;;;;;;;;;;5133988;27;2104;-42
2023/04/17 07:29:37;;;;;;;;;;;;;;;;;;5133698;27;1987;-50
2023/04/17 07:32:05;;;;;;;;;;;;;;;;;;5134042;27;1721;-57
2023/04/17 07:34:34;;;;;;;;;;;;;;;;;;5133859;27;2124;-60
2023/04/17 07:37:02;;;;;;;;;;;;;;;;;;5134050;27;1371;-60
2023/04/17 07:39:30;;;;;;;;;;;;;;;;;;5134180;27;1685;-46
2023/04/17 07:41:57;;;;;;;;;;;;;;;;;;5133837;27;2097;-42
2023/04/17 07:44:24;;;;;;;;;;;;;;;;;;5133830;27;1647;-49
2023/04/17 07:46:51;;;;;;;;;;;;;;;;;;5129251;27;2168;-48
2023/04/17 07:49:19;;;;;;;;;;;;;;;;;;5113040;28;1969;-49
2023/04/17 07:51:46;;;;;;;;;;;;;;;;;;5113248;28;1503;-43
2023/04/17 07:54:13;;;;;;;;;;;;;;;;;;5113022;28;1922;-44
2023/04/17 07:56:40;;;;;;;;;;;;;;;;;;5113149;28;2286;-43
2023/04/17 07:59:08;;;;;;;;;;;;;;;;;;5112965;28;2220;-48
2023/04/17 08:01:35;;;;;;;;;;;;;;;;;;5123019;27;2315;-47
2023/04/17 08:04:02;;;;;;;;;;;;;;;;;;5133672;27;2149;-42
2023/04/17 08:06:30;;;;;;;;;;;;;;;;;;5132508;27;1912;-42
2023/04/17 08:08:58;;;;;;;;;;;;;;;;;;5133339;27;1459;-42
2023/04/17 08:11:25;;;;;;;;;;;;;;;;;;5133034;27;1763;-42
2023/04/17 08:13:56;;;;;;;;;;;;;;;;;;5133176;27;2538;-41
2023/04/17 08:16:23;;;;;;;;;;;;;;;;;;5133347;27;2218;-46
2023/04/17 08:18:50;;;;;;;;;;;;;;;;;;5132652;27;1836;-42
2023/04/17 08:21:18;;;;;;;;;;;;;;;;;;5133253;27;2162;-41
2023/04/17 08:23:45;;;;;;;;;;;;;;;;;;5133286;27;2203;-43
2023/04/17 08:26:12;;;;;;;;;;;;;;;;;;5133182;27;1935;-41
2023/04/17 08:28:40;;;;;;;;;;;;;;;;;;5133129;27;1839;-41
2023/04/17 08:31:09;;;;;;;;;;;;;;;;;;5133007;27;2069;-40
2023/04/17 08:33:36;;;;;;;;;;;;;;;;;;5133038;27;1977;-42
2023/04/17 08:36:08;;;;;;;;;;;;;;;;;;5133078;27;1716;-42
2023/04/17 08:38:35;;;;;;;;;;;;;;;;;;5133069;27;1707;-42
2023/04/17 08:41:05;;;;;;;;;;;;;;;;;;5133150;27;2056;-42
2023/04/17 08:43:34;;;;;;;;;;;;;;;;;;5132823;27;1777;-42
2023/04/17 08:46:02;;;;;;;;;;;;;;;;;;5132610;27;1620;-43
2023/04/17 08:48:29;;;;;;;;;;;;;;;;;;5114075;27;2175;-46
2023/04/17 08:50:57;;;;;;;;;;;;;;;;;;5112073;28;2303;-42
2023/04/17 08:53:24;;;;;;;;;;;;;;;;;;5111999;28;2031;-43
2023/04/17 08:55:51;;;;;;;;;;;;;;;;;;5111997;28;1888;-48
2023/04/17 08:58:20;;;;;;;;;;;;;;;;;;5112066;28;1473;-58
2023/04/17 09:00:48;;;;;;;;;;;;;;;;;;5111652;28;1914;-42
2023/04/17 09:03:15;;;;;;;;;;;;;;;;;;5112006;28;1957;-45
2023/04/17 09:05:44;;;;;;;;;;;;;;;;;;5122368;27;1711;-41
2023/04/17 09:08:14;;;;;;;;;;;;;;;;;;5132449;27;1976;-41
2023/04/17 09:10:46;;;;;;;;;;;;;;;;;;5113772;27;1789;-42
2023/04/17 09:13:15;;;;;;;;;;;;;;;;;;5132065;27;1881;-41
2023/04/17 09:15:43;;;;;;;;;;;;;;;;;;5130642;27;1970;-41
2023/04/17 09:18:26;;;;;;;;;;;;;;;;;;5131279;27;1844;-41
2023/04/17 09:20:56;;;;;;;;;;;;;;;;;;5131768;27;1685;-40
2023/04/17 09:23:23;;;;;;;;;;;;;;;;;;5132042;27;2146;-41
2023/04/17 09:26:10;;;;;;;;;;;;;;;;;;5131902;27;1958;-41
2023/04/17 09:28:38;;;;;;;;;;;;;;;;;;5132245;28;1792;-44
2023/04/17 09:31:22;;;;;;;;;;;;;;;;;;5131155;27;1527;-41
2023/04/17 09:33:59;;;;;;;;;;;;;;;;;;5132015;28;1984;-42
2023/04/17 09:36:29;;;;;;;;;;;;;;;;;;5131878;28;1865;-43
2023/04/17 09:38:58;;;;;;;;;;;;;;;;;;5131905;28;1585;-49
2023/04/17 09:41:27;;;;;;;;;;;;;;;;;;5131774;28;2001;-40
2023/04/17 09:43:55;;;;;;;;;;;;;;;;;;5127774;28;2153;-40
2023/04/17 09:46:36;;;;;;;;;;;;;;;;;;5131515;28;2045;-38
2023/04/17 09:49:10;;;;;;;;;;;;;;;;;;5111139;28;2188;-40
2023/04/17 09:51:38;;;;;;;;;;;;;;;;;;5111354;28;1689;-43
2023/04/17 09:54:05;;;;;;;;;;;;;;;;;;5111034;28;2103;-40
2023/04/17 09:56:34;;;;;;;;;;;;;;;;;;5111088;28;1982;-38
2023/04/17 09:59:05;;;;;;;;;;;;;;;;;;5111077;28;1988;-40
2023/04/17 10:01:33;;;;;;;;;;;;;;;;;;5111046;28;2034;-38
2023/04/17 10:04:02;;;;;;;;;;;;;;;;;;5110832;28;1224;-40
2023/04/17 10:06:30;;;;;;;;;;;;;;;;;;5111019;28;1912;-42
2023/04/17 10:09:02;;;;;;;;;;;;;;;;;;5111178;28;1800;-45
2023/04/17 10:11:32;;;;;;;;;;;;;;;;;;5110998;28;2132;-40
2023/04/17 10:14:18;;;;;;;;;;;;;;;;;;5110992;28;1929;-44
2023/04/17 10:16:46;;;;;;;;;;;;;;;;;;5110606;28;1965;-39
2023/04/17 10:19:35;;;;;;;;;;;;;;;;;;5110830;28;1965;-38
2023/04/17 10:22:18;;;;;;;;;;;;;;;;;;5110942;28;2053;-38
2023/04/17 10:24:51;;;;;;;;;;;;;;;;;;5110944;28;2164;-40
2023/04/17 10:27:25;;;;;;;;;;;;;;;;;;5110795;28;2004;-46
2023/04/17 10:29:54;;;;;;;;;;;;;;;;;;5110858;28;1872;-38
2023/04/17 10:32:27;;;;;;;;;;;;;;;;;;5110728;28;1936;-45
2023/04/17 10:34:54;;;;;;;;;;;;;;;;;;5110807;28;2179;-46
2023/04/17 10:37:43;;;;;;;;;;;;;;;;;;5110713;28;2152;-38
2023/04/17 10:40:10;;;;;;;;;;;;;;;;;;5110746;28;1993;-39
2023/04/17 10:42:39;;;;;;;;;;;;;;;;;;5113759;28;2100;-42
2023/04/17 10:45:16;;;;;;;;;;;;;;;;;;5114977;28;1961;-41
2023/04/17 10:47:56;;;;;;;;;;;;;;;;;;5114090;28;2161;-45
2023/04/17 10:50:27;;;;;;;;;;;;;;;;;;5114230;28;1686;-48
2023/04/17 10:52:54;;;;;;;;;;;;;;;;;;5114113;28;1731;-39
2023/04/17 10:55:22;;;;;;;;;;;;;;;;;;5114188;28;1909;-39
2023/04/17 10:57:53;;;;;;;;;;;;;;;;;;5114606;28;2087;-47
2023/04/17 11:00:27;;;;;;;;;;;;;;;;;;5114235;28;1970;-43
2023/04/17 11:02:54;;;;;;;;;;;;;;;;;;5113802;28;1820;-53
2023/04/17 11:05:22;;;;;;;;;;;;;;;;;;5113938;28;2053;-43
2023/04/17 11:07:50;;;;;;;;;;;;;;;;;;5113776;28;2071;-44
2023/04/17 11:10:22;;;;;;;;;;;;;;;;;;5115691;27;1708;-41
2023/04/17 11:12:52;;;;;;;;;;;;;;;;;;5134322;27;1850;-40
2023/04/17 11:15:27;;;;;;;;;;;;;;;;;;5134046;27;1981;-40
2023/04/17 11:17:55;;;;;;;;;;;;;;;;;;5134243;27;1848;-43
2023/04/17 11:20:26;;;;;;;;;;;;;;;;;;5134106;27;2080;-38
2023/04/17 11:22:54;;;;;;;;;;;;;;;;;;5134386;27;1902;-38
2023/04/17 11:25:22;;;;;;;;;;;;;;;;;;5134121;27;2309;-40
2023/04/17 11:27:50;;;;;;;;;;;;;;;;;;5134177;27;1522;-40
2023/04/17 11:30:34;;;;;;;;;;;;;;;;;;5133854;27;1801;-40
2023/04/17 11:33:03;;;;;;;;;;;;;;;;;;5133979;27;1947;-39
2023/04/17 11:35:33;;;;;;;;;;;;;;;;;;5115036;27;2000;-39
2023/04/17 11:38:05;;;;;;;;;;;;;;;;;;5113294;28;1984;-40
2023/04/17 11:40:32;;;;;;;;;;;;;;;;;;5112999;28;1955;-42
2023/04/17 11:43:09;;;;;;;;;;;;;;;;;;5113393;28;2014;-40
2023/04/17 11:45:39;;;;;;;;;;;;;;;;;;5112997;28;1971;-41
2023/04/17 11:48:08;;;;;;;;;;;;;;;;;;5113004;28;1712;-40
2023/04/17 11:50:35;;;;;;;;;;;;;;;;;;5113224;28;1896;-40
2023/04/17 11:53:03;;;;;;;;;;;;;;;;;;5112107;28;1767;-41
2023/04/17 11:55:30;;;;;;;;;;;;;;;;;;5112828;28;1984;-40
2023/04/17 11:58:04;;;;;;;;;;;;;;;;;;5112922;28;2279;-40
2023/04/17 12:00:32;;;;;;;;;;;;;;;;;;5112750;28;2010;-55
2023/04/17 12:03:00;;;;;;;;;;;;;;;;;;5112892;28;1461;-49
2023/04/17 12:05:29;;;;;;;;;;;;;;;;;;5112328;28;1791;-41
2023/04/17 12:08:00;;;;;;;;;;;;;;;;;;5113056;28;1595;-40
2023/04/17 12:10:37;;;;;;;;;;;;;;;;;;5112986;28;1449;-40
2023/04/17 12:13:04;;;;;;;;;;;;;;;;;;5113025;28;1585;-43
2023/04/17 12:15:31;;;;;;;;;;;;;;;;;;5112650;28;2144;-41
2023/04/17 12:17:59;;;;;;;;;;;;;;;;;;5112724;28;1986;-40
2023/04/17 12:20:26;;;;;;;;;;;;;;;;;;5112620;28;2407;-45
2023/04/17 12:22:53;;;;;;;;;;;;;;;;;;5112620;28;1847;-40
2023/04/17 12:25:20;;;;;;;;;;;;;;;;;;5112396;28;2287;-40
2023/04/17 12:27:47;;;;;;;;;;;;;;;;;;5112622;28;1879;-40
2023/04/17 12:30:15;;;;;;;;;;;;;;;;;;5111884;28;1748;-40
2023/04/17 12:32:47;;;;;;;;;;;;;;;;;;5112464;28;2069;-39
2023/04/17 12:35:14;;;;;;;;;;;;;;;;;;5112661;28;2028;-40
2023/04/17 12:37:47;;;;;;;;;;;;;;;;;;5112559;28;2376;-42
2023/04/17 12:40:17;;;;;;;;;;;;;;;;;;5112952;28;1665;-39
2023/04/17 12:42:46;;;;;;;;;;;;;;;;;;5111058;28;1563;-39
2023/04/17 12:45:16;;;;;;;;;;;;;;;;;;5111529;28;1655;-40
2023/04/17 12:47:43;;;;;;;;;;;;;;;;;;5115909;27;2161;-40
2023/04/17 12:50:12;;;;;;;;;;;;;;;;;;5132120;27;1575;-41
2023/04/17 12:52:41;;;;;;;;;;;;;;;;;;5132075;27;1833;-43
2023/04/17 12:55:16;;;;;;;;;;;;;;;;;;5132243;27;1961;-40
2023/04/17 12:57:45;;;;;;;;;;;;;;;;;;5132379;27;1738;-40
2023/04/17 13:00:16;;;;;;;;;;;;;;;;;;5132539;27;2169;-43
2023/04/17 13:02:43;;;;;;;;;;;;;;;;;;5113557;27;1654;-40
2023/04/17 13:05:11;;;;;;;;;;;;;;;;;;5130901;27;1411;-40
2023/04/17 13:07:38;;;;;;;;;;;;;;;;;;5131547;27;2050;-40
2023/04/17 13:10:06;;;;;;;;;;;;;;;;;;5131679;27;1645;-40
2023/04/17 13:12:33;;;;;;;;;;;;;;;;;;5132166;27;1766;-39
2023/04/17 13:15:00;;;;;;;;;;;;;;;;;;5131982;27;2012;-41
2023/04/17 13:17:27;;;;;;;;;;;;;;;;;;5132431;27;2013;-40
2023/04/17 13:19:54;;;;;;;;;;;;;;;;;;5132215;27;1736;-40
2023/04/17 13:22:21;;;;;;;;;;;;;;;;;;5132190;27;1836;-40
2023/04/17 13:24:49;;;;;;;;;;;;;;;;;;5130658;27;1842;-40
2023/04/17 13:27:17;;;;;;;;;;;;;;;;;;5132177;27;1967;-37
2023/04/17 13:29:44;;;;;;;;;;;;;;;;;;5131949;28;1713;-40
2023/04/17 13:32:12;;;;;;;;;;;;;;;;;;5131313;28;2196;-40
2023/04/17 13:34:39;;;;;;;;;;;;;;;;;;5131924;28;1979;-40
2023/04/17 13:37:07;;;;;;;;;;;;;;;;;;5132013;28;1885;-40
2023/04/17 13:39:34;;;;;;;;;;;;;;;;;;5131875;28;1948;-39
2023/04/17 13:42:02;;;;;;;;;;;;;;;;;;5132048;28;1519;-39
2023/04/17 13:44:30;;;;;;;;;;;;;;;;;;5131847;28;1702;-42
2023/04/17 13:46:58;;;;;;;;;;;;;;;;;;5126530;28;1955;-38
2023/04/17 13:49:28;;;;;;;;;;;;;;;;;;5093061;28;1714;-39
2023/04/17 13:51:55;;;;;;;;;;;;;;;;;;5111100;28;1682;-49
2023/04/17 13:54:22;;;;;;;;;;;;;;;;;;5111462;28;1985;-52
2023/04/17 13:56:49;;;;;;;;;;;;;;;;;;5111338;28;1905;-56
2023/04/17 13:59:17;;;;;;;;;;;;;;;;;;5111696;28;1914;-39
2023/04/17 14:01:44;;;;;;;;;;;;;;;;;;5111154;28;1487;-38
2023/04/17 14:04:11;;;;;;;;;;;;;;;;;;5111080;28;1995;-42
2023/04/17 14:06:38;;;;;;;;;;;;;;;;;;5111145;28;1671;-39
2023/04/17 14:09:06;;;;;;;;;;;;;;;;;;5111019;28;1938;-39
2023/04/17 14:11:33;;;;;;;;;;;;;;;;;;5111245;28;1581;-54
2023/04/17 14:14:00;;;;;;;;;;;;;;;;;;5111255;28;1621;-49
2023/04/17 14:16:27;;;;;;;;;;;;;;;;;;5112133;28;1902;-39
2023/04/17 14:18:54;;;;;;;;;;;;;;;;;;5115002;28;1895;-39
2023/04/17 14:21:23;;;;;;;;;;;;;;;;;;5115107;28;1398;-39
2023/04/17 14:23:51;;;;;;;;;;;;;;;;;;5115081;28;2000;-39
2023/04/17 14:26:18;;;;;;;;;;;;;;;;;;5114843;28;1990;-39
2023/04/17 14:28:45;;;;;;;;;;;;;;;;;;5114998;28;1848;-40
2023/04/17 14:31:12;;;;;;;;;;;;;;;;;;5096431;28;2104;-39
2023/04/17 14:33:41;;;;;;;;;;;;;;;;;;5115114;28;1883;-39
2023/04/17 14:36:09;;;;;;;;;;;;;;;;;;5114627;28;2071;-39
2023/04/17 14:38:36;;;;;;;;;;;;;;;;;;5114898;28;2087;-39
2023/04/17 14:41:03;;;;;;;;;;;;;;;;;;5114488;28;1843;-39
2023/04/17 14:43:30;;;;;;;;;;;;;;;;;;5114414;28;2032;-39
2023/04/17 14:45:57;;;;;;;;;;;;;;;;;;5112785;28;1712;-40
2023/04/17 14:48:24;;;;;;;;;;;;;;;;;;5114009;28;1693;-39
2023/04/17 14:50:52;;;;;;;;;;;;;;;;;;5114851;28;1715;-39
2023/04/17 14:53:19;;;;;;;;;;;;;;;;;;5113953;28;1946;-53
2023/04/17 14:55:47;;;;;;;;;;;;;;;;;;5113974;28;1969;-46
2023/04/17 14:58:14;;;;;;;;;;;;;;;;;;5114332;28;1700;-39
2023/04/17 15:00:42;;;;;;;;;;;;;;;;;;5113291;28;1927;-39
2023/04/17 15:03:09;;;;;;;;;;;;;;;;;;5114232;28;2133;-40
2023/04/17 15:05:39;;;;;;;;;;;;;;;;;;5113239;28;1400;-39
2023/04/17 15:08:06;;;;;;;;;;;;;;;;;;5114046;28;2136;-38
2023/04/17 15:10:33;;;;;;;;;;;;;;;;;;5114429;28;1774;-39
2023/04/17 15:13:13;;;;;;;;;;;;;;;;;;5113848;28;1822;-39
2023/04/17 15:15:40;;;;;;;;;;;;;;;;;;5113555;28;1938;-54
2023/04/17 15:18:09;;;;;;;;;;;;;;;;;;5113844;28;2263;-38
2023/04/17 15:20:36;;;;;;;;;;;;;;;;;;5113598;28;1993;-39
2023/04/17 15:23:03;;;;;;;;;;;;;;;;;;5113825;28;1654;-39
2023/04/17 15:25:30;;;;;;;;;;;;;;;;;;5113479;28;1669;-39
2023/04/17 15:27:57;;;;;;;;;;;;;;;;;;5112607;28;1684;-39
2023/04/17 15:30:24;;;;;;;;;;;;;;;;;;5095462;28;2335;-39
2023/04/17 15:32:51;;;;;;;;;;;;;;;;;;5114310;28;1871;-39
2023/04/17 15:35:19;;;;;;;;;;;;;;;;;;5113449;28;1975;-39
2023/04/17 15:37:47;;;;;;;;;;;;;;;;;;5113747;28;1962;-39
2023/04/17 15:40:15;;;;;;;;;;;;;;;;;;5113375;28;2094;-38
2023/04/17 15:42:42;;;;;;;;;;;;;;;;;;5113668;28;1836;-39
2023/04/17 15:45:09;;;;;;;;;;;;;;;;;;5113436;28;1965;-39
2023/04/17 15:47:36;;;;;;;;;;;;;;;;;;5113150;28;1968;-41
2023/04/17 15:50:04;;;;;;;;;;;;;;;;;;5113527;28;1946;-39
2023/04/17 15:52:31;;;;;;;;;;;;;;;;;;5113168;28;1808;-39
2023/04/17 15:54:58;;;;;;;;;;;;;;;;;;5113360;28;2102;-39
2023/04/17 15:57:25;;;;;;;;;;;;;;;;;;5113109;28;2192;-38
2023/04/17 15:59:52;;;;;;;;;;;;;;;;;;5113231;28;1559;-38
2023/04/17 16:02:20;;;;;;;;;;;;;;;;;;5113016;28;2314;-39
2023/04/17 16:04:47;;;;;;;;;;;;;;;;;;5113274;28;1465;-39
2023/04/17 16:07:15;;;;;;;;;;;;;;;;;;5112702;28;1683;-38
2023/04/17 16:09:43;;;;;;;;;;;;;;;;;;5112643;28;2108;-39
2023/04/17 16:12:10;;;;;;;;;;;;;;;;;;5112895;28;1616;-39
2023/04/17 16:14:37;;;;;;;;;;;;;;;;;;5112535;28;1839;-45
2023/04/17 16:17:05;;;;;;;;;;;;;;;;;;5112915;28;2076;-47
2023/04/17 16:19:32;;;;;;;;;;;;;;;;;;5112788;28;1872;-41
2023/04/17 16:21:59;;;;;;;;;;;;;;;;;;5112772;28;2151;-38
2023/04/17 16:24:26;;;;;;;;;;;;;;;;;;5112821;28;2064;-42
2023/04/17 16:26:57;;;;;;;;;;;;;;;;;;5112638;28;1655;-41
2023/04/17 16:29:25;;;;;;;;;;;;;;;;;;5112865;28;2290;-39
2023/04/17 16:31:52;;;;;;;;;;;;;;;;;;5112400;28;1797;-39
2023/04/17 16:34:20;;;;;;;;;;;;;;;;;;5112005;28;2042;-38
2023/04/17 16:36:48;;;;;;;;;;;;;;;;;;5112136;28;2199;-38
2023/04/17 16:39:15;;;;;;;;;;;;;;;;;;5111815;28;1715;-38
2023/04/17 16:41:43;;;;;;;;;;;;;;;;;;5112132;28;1813;-38
2023/04/17 16:44:10;;;;;;;;;;;;;;;;;;5112322;28;2200;-38
2023/04/17 16:46:37;;;;;;;;;;;;;;;;;;5114115;27;2065;-39
2023/04/17 16:49:24;;;;;;;;;;;;;;;;;;5132920;27;1882;-39
2023/04/17 16:51:51;;;;;;;;;;;;;;;;;;5132713;27;1770;-39
2023/04/17 16:54:20;;;;;;;;;;;;;;;;;;5132605;27;1742;-39
2023/04/17 16:56:47;;;;;;;;;;;;;;;;;;5132505;27;2237;-39
2023/04/17 16:59:15;;;;;;;;;;;;;;;;;;5132587;27;1693;-40
2023/04/17 17:01:42;;;;;;;;;;;;;;;;;;5132519;27;1573;-39
2023/04/17 17:04:09;;;;;;;;;;;;;;;;;;5132599;27;1826;-38
2023/04/17 17:06:36;;;;;;;;;;;;;;;;;;5132387;27;1714;-39
2023/04/17 17:09:03;;;;;;;;;;;;;;;;;;5132265;27;1916;-39
2023/04/17 17:11:30;;;;;;;;;;;;;;;;;;5132767;27;1678;-39
2023/04/17 17:13:57;;;;;;;;;;;;;;;;;;5132426;27;2064;-39